Time;durP1;ratioP1;P1;durP2;ratioP2;P2;SDS_P1;SDS_P2;PMS_P1;PMS_P2;Temp;Humidity;BMP_temperature;BMP_pressure;BME280_temperature;BME280_humidity;BME280_pressure;Samples;Min_cycle;Max_cycle;Signal;HPM_P1;HPM_P2
2021/06/08 00:00:20;;;;;;;16.38;14.77;;;15.00;99.90;;;;;;5028965;28;20066;-75
2021/06/08 00:02:46;;;;;;;17.92;16.10;;;14.90;99.90;;;;;;5029007;28;20109;-74
2021/06/08 00:05:12;;;;;;;17.90;15.98;;;14.90;99.90;;;;;;5028971;28;20109;-75
2021/06/08 00:07:37;;;;;;;16.27;14.57;;;14.80;99.90;;;;;;5029137;28;20029;-75
2021/06/08 00:10:05;;;;;;;20.90;16.95;;;14.80;99.90;;;;;;5031678;28;20483;-75
2021/06/08 00:12:30;;;;;;;18.73;16.70;;;14.80;99.90;;;;;;5032818;28;20030;-74
2021/06/08 00:14:56;;;;;;;18.55;16.63;;;14.70;99.90;;;;;;5032899;28;20386;-75
2021/06/08 00:17:21;;;;;;;17.63;15.85;;;14.70;99.90;;;;;;5031516;28;20032;-75
2021/06/08 00:19:47;;;;;;;17.55;15.15;;;14.70;99.90;;;;;;5032749;28;20056;-75
2021/06/08 00:22:13;;;;;;;18.20;16.30;;;14.60;99.90;;;;;;5032659;28;20044;-75
2021/06/08 00:24:38;;;;;;;19.75;17.38;;;14.60;99.90;;;;;;5031463;28;20021;-75
2021/06/08 00:27:05;;;;;;;21.95;18.00;;;14.50;99.90;;;;;;5031815;28;20029;-75
2021/06/08 00:29:30;;;;;;;20.33;18.13;;;14.50;99.90;;;;;;5032589;28;20033;-75
2021/06/08 00:31:56;;;;;;;18.77;16.85;;;14.50;99.90;;;;;;5031156;28;20390;-75
2021/06/08 00:34:21;;;;;;;20.45;17.98;;;14.50;99.90;;;;;;5031186;28;20422;-75
2021/06/08 00:36:47;;;;;;;18.55;16.20;;;14.50;99.90;;;;;;5031221;28;20360;-74
2021/06/08 00:39:12;;;;;;;19.00;17.05;;;14.50;99.90;;;;;;5032427;28;20189;-75
2021/06/08 00:41:43;;;;;;;20.98;17.95;;;14.40;99.90;;;;;;5030921;28;20037;-75
2021/06/08 00:44:13;;;;;;;17.33;15.50;;;14.40;99.90;;;;;;5032651;28;20021;-75
2021/06/08 00:46:40;;;;;;;19.55;16.38;;;14.40;99.90;;;;;;5032147;28;20022;-75
2021/06/08 00:49:05;;;;;;;18.23;15.95;;;14.30;99.90;;;;;;5030959;28;20026;-75
2021/06/08 00:51:32;;;;;;;16.70;14.95;;;14.30;99.90;;;;;;5031363;28;20410;-75
2021/06/08 00:54:03;;;;;;;17.52;15.70;;;14.20;99.90;;;;;;5030895;28;20445;-74
2021/06/08 00:56:29;;;;;;;16.85;15.05;;;14.20;99.90;;;;;;5032455;28;20018;-75
2021/06/08 00:58:54;;;;;;;16.73;15.02;;;14.20;99.90;;;;;;5032063;28;20100;-75
2021/06/08 01:01:20;;;;;;;17.92;16.02;;;14.10;99.90;;;;;;5031908;28;20108;-75
2021/06/08 01:03:45;;;;;;;17.77;15.80;;;14.10;99.90;;;;;;5031899;28;20044;-75
2021/06/08 01:06:11;;;;;;;20.85;18.65;;;14.10;99.90;;;;;;5032203;28;20516;-74
2021/06/08 01:08:36;;;;;;;20.27;18.15;;;14.00;99.90;;;;;;5031759;28;20033;-74
2021/06/08 01:11:02;;;;;;;19.27;16.60;;;14.10;99.90;;;;;;5031779;28;20021;-75
2021/06/08 01:13:29;;;;;;;21.02;18.30;;;14.10;99.90;;;;;;5030533;28;20414;-75
2021/06/08 01:15:54;;;;;;;19.13;17.02;;;14.10;99.90;;;;;;5031772;28;20479;-74
2021/06/08 01:18:22;;;;;;;17.98;15.95;;;14.00;99.90;;;;;;5031676;28;20074;-74
2021/06/08 01:20:48;;;;;;;18.08;15.30;;;14.00;99.90;;;;;;5030583;28;20025;-75
2021/06/08 01:23:14;;;;;;;20.08;17.85;;;13.90;99.90;;;;;;5031611;28;20025;-75
2021/06/08 01:25:39;;;;;;;21.40;19.10;;;13.90;99.90;;;;;;5031543;28;20031;-75
2021/06/08 01:28:05;;;;;;;19.48;17.35;;;13.90;99.90;;;;;;5031408;28;20032;-75
2021/06/08 01:30:31;;;;;;;18.02;15.88;;;13.90;99.90;;;;;;5031704;28;20018;-75
2021/06/08 01:32:59;;;;;;;20.05;16.67;;;13.90;99.90;;;;;;5030113;28;20035;-75
2021/06/08 01:35:28;;;;;;;18.25;15.98;;;13.80;99.90;;;;;;5031665;28;20110;-75
2021/06/08 01:37:53;;;;;;;20.08;17.50;;;13.80;99.90;;;;;;5030065;28;20025;-74
2021/06/08 01:40:20;;;;;;;22.27;18.77;;;13.70;99.90;;;;;;5031046;28;20469;-75
2021/06/08 01:42:48;;;;;;;25.35;20.50;;;13.70;99.90;;;;;;5031874;28;20104;-75
2021/06/08 01:45:15;;;;;;;24.17;19.20;;;13.80;99.90;;;;;;5029965;28;20078;-75
2021/06/08 01:47:41;;;;;;;26.38;21.75;;;13.80;99.90;;;;;;5031059;28;20030;-75
2021/06/08 01:50:07;;;;;;;26.52;21.90;;;13.80;99.90;;;;;;5030966;28;20584;-75
2021/06/08 01:52:32;;;;;;;24.48;20.40;;;13.80;99.90;;;;;;5029764;28;20021;-75
2021/06/08 01:55:17;;;;;;;23.88;20.73;;;13.80;99.90;;;;;;5029707;28;20394;-75
2021/06/08 01:58:05;;;;;;;25.70;21.73;;;13.80;99.90;;;;;;5031329;28;20061;-75
2021/06/08 02:00:52;;;;;;;25.38;20.92;;;13.80;99.90;;;;;;5029581;28;20022;-75
2021/06/08 02:03:30;;;;;;;22.88;20.00;;;13.80;99.90;;;;;;5030980;28;20464;-75
2021/06/08 02:06:01;;;;;;;23.25;20.15;;;13.70;99.90;;;;;;5031188;28;20028;-75
2021/06/08 02:08:40;;;;;;;23.67;21.08;;;13.70;99.90;;;;;;5030726;28;20099;-75
2021/06/08 02:11:26;;;;;;;22.08;19.48;;;13.70;99.90;;;;;;5030682;28;20536;-74
2021/06/08 02:14:05;;;;;;;28.00;21.13;;;13.70;99.90;;;;;;5031000;28;20029;-74
2021/06/08 02:16:35;;;;;;;24.63;19.77;;;13.60;99.90;;;;;;5030578;28;20036;-74
2021/06/08 02:19:01;;;;;;;24.55;20.25;;;13.60;99.90;;;;;;5030619;28;20554;-74
2021/06/08 02:21:31;;;;;;;22.00;19.42;;;13.60;99.90;;;;;;5029231;28;20057;-74
2021/06/08 02:23:58;;;;;;;24.70;20.38;;;13.60;99.90;;;;;;5030813;28;20021;-74
2021/06/08 02:26:25;;;;;;;26.92;21.38;;;13.60;99.90;;;;;;5030640;28;20493;-74
2021/06/08 02:28:52;;;;;;;22.17;18.67;;;13.50;99.90;;;;;;5029177;28;20021;-75
2021/06/08 02:31:21;;;;;;;21.92;18.33;;;13.50;99.90;;;;;;5030406;28;20017;-75
2021/06/08 02:33:48;;;;;;;20.48;17.75;;;13.50;99.90;;;;;;5029002;28;20022;-75
2021/06/08 02:36:14;;;;;;;21.80;17.80;;;13.40;99.90;;;;;;5028978;28;20071;-75
2021/06/08 02:38:40;;;;;;;21.08;16.98;;;13.40;99.90;;;;;;5030192;28;20175;-75
2021/06/08 02:41:07;;;;;;;20.85;18.17;;;13.40;99.90;;;;;;5030161;28;20124;-75
2021/06/08 02:43:35;;;;;;;22.30;17.90;;;13.40;99.90;;;;;;5030154;28;20521;-75
2021/06/08 02:46:02;;;;;;;21.30;17.50;;;13.40;99.90;;;;;;5030394;28;20030;-75
2021/06/08 02:48:28;;;;;;;20.77;18.13;;;13.30;99.90;;;;;;5030160;28;20036;-75
2021/06/08 02:50:55;;;;;;;20.83;17.83;;;13.40;99.90;;;;;;5029958;28;20024;-75
2021/06/08 02:53:23;;;;;;;21.55;17.95;;;13.30;99.90;;;;;;5029950;28;20037;-75
2021/06/08 02:55:51;;;;;;;23.20;17.73;;;13.30;99.90;;;;;;5029925;28;20029;-75
2021/06/08 02:58:17;;;;;;;22.67;18.75;;;13.30;99.90;;;;;;5029951;28;20106;-75
2021/06/08 03:00:43;;;;;;;22.23;18.10;;;13.30;99.90;;;;;;5029758;28;20032;-75
2021/06/08 03:03:11;;;;;;;19.83;16.95;;;13.30;99.90;;;;;;5029823;28;20025;-75
2021/06/08 03:05:40;;;;;;;20.95;17.33;;;13.30;99.90;;;;;;5029805;28;20116;-75
2021/06/08 03:08:18;;;;;;;18.60;16.02;;;13.30;99.90;;;;;;5029967;28;20025;-75
2021/06/08 03:10:47;;;;;;;18.42;14.90;;;13.30;99.90;;;;;;5028531;28;20029;-75
2021/06/08 03:13:16;;;;;;;17.58;15.65;;;13.20;99.90;;;;;;5028453;28;20032;-75
2021/06/08 03:15:50;;;;;;;15.85;13.70;;;13.20;99.90;;;;;;5028311;28;20021;-74
2021/06/08 03:18:21;;;;;;;15.57;13.85;;;13.20;99.90;;;;;;5029576;28;20033;-75
2021/06/08 03:21:02;;;;;;;19.08;14.65;;;13.20;99.90;;;;;;5028306;28;20399;-75
2021/06/08 03:23:33;;;;;;;16.00;14.13;;;13.10;99.90;;;;;;5028307;28;20033;-75
2021/06/08 03:26:01;;;;;;;18.10;15.80;;;13.10;99.90;;;;;;5028187;28;20505;-75
2021/06/08 03:28:30;;;;;;;18.08;15.90;;;13.10;99.90;;;;;;5028150;28;20056;-75
2021/06/08 03:30:56;;;;;;;16.65;14.45;;;13.10;99.90;;;;;;5029381;28;20440;-74
2021/06/08 03:33:24;;;;;;;16.92;15.13;;;13.10;99.90;;;;;;5029509;28;20025;-74
2021/06/08 03:35:51;;;;;;;18.40;16.05;;;13.10;99.90;;;;;;5029425;28;20033;-75
2021/06/08 03:38:17;;;;;;;17.42;14.85;;;13.20;99.90;;;;;;5028145;28;20025;-75
2021/06/08 03:40:44;;;;;;;18.15;14.85;;;13.20;99.90;;;;;;5029474;28;20042;-75
2021/06/08 03:43:11;;;;;;;17.83;15.57;;;13.30;99.90;;;;;;5027655;28;20030;-75
2021/06/08 03:45:36;;;;;;;18.23;16.05;;;13.30;99.90;;;;;;5029398;28;20043;-75
2021/06/08 03:48:02;;;;;;;17.92;14.75;;;13.40;99.90;;;;;;5029528;28;20029;-75
2021/06/08 03:50:29;;;;;;;16.13;14.18;;;13.50;99.90;;;;;;5029313;28;20025;-75
2021/06/08 03:52:56;;;;;;;17.73;15.07;;;13.60;99.90;;;;;;5029501;28;20030;-75
2021/06/08 03:55:23;;;;;;;18.63;15.70;;;13.60;99.90;;;;;;5029689;28;20483;-75
2021/06/08 03:57:52;;;;;;;16.15;14.45;;;13.70;99.90;;;;;;5028257;28;20026;-76
2021/06/08 04:00:21;;;;;;;18.67;16.48;;;13.80;99.90;;;;;;5030379;28;20017;-75
2021/06/08 04:02:47;;;;;;;18.80;15.45;;;13.90;99.90;;;;;;5030248;28;20053;-75
2021/06/08 04:05:14;;;;;;;18.35;15.15;;;14.00;99.90;;;;;;5028896;28;20021;-75
2021/06/08 04:07:45;;;;;;;17.13;15.35;;;14.10;99.90;;;;;;5028429;28;20026;-75
2021/06/08 04:10:21;;;;;;;15.48;13.88;;;14.20;99.90;;;;;;5029627;28;20014;-75
2021/06/08 04:12:48;;;;;;;14.60;12.93;;;14.40;99.90;;;;;;5029467;28;20032;-75
2021/06/08 04:15:14;;;;;;;17.50;13.98;;;14.50;99.90;;;;;;5029227;28;20018;-75
2021/06/08 04:17:40;;;;;;;13.98;12.50;;;14.70;99.90;;;;;;5027792;28;20057;-75
2021/06/08 04:20:09;;;;;;;18.05;12.65;;;14.80;99.90;;;;;;5027655;28;20455;-75
2021/06/08 04:22:36;;;;;;;16.33;12.52;;;14.90;99.90;;;;;;5028906;28;20026;-75
2021/06/08 04:25:03;;;;;;;16.70;12.68;;;15.00;99.90;;;;;;5029821;28;20060;-75
2021/06/08 04:27:30;;;;;;;15.35;12.75;;;15.00;99.90;;;;;;5028799;28;20037;-76
2021/06/08 04:29:56;;;;;;;14.55;12.40;;;15.10;99.90;;;;;;5027644;28;20108;-75
2021/06/08 04:32:23;;;;;;;15.63;12.32;;;15.20;99.90;;;;;;5028805;28;20394;-75
2021/06/08 04:34:54;;;;;;;14.60;11.98;;;15.20;99.90;;;;;;5028789;28;20017;-75
2021/06/08 04:37:21;;;;;;;20.38;13.40;;;15.30;99.90;;;;;;5028824;28;20026;-75
2021/06/08 04:39:47;;;;;;;13.75;12.32;;;15.40;99.90;;;;;;5028811;28;20079;-75
2021/06/08 04:42:14;;;;;;;13.88;12.07;;;15.50;99.90;;;;;;5027278;28;20104;-75
2021/06/08 04:44:48;;;;;;;13.32;11.70;;;15.60;99.90;;;;;;5028588;28;20458;-75
2021/06/08 04:47:16;;;;;;;14.90;12.57;;;15.80;99.90;;;;;;5027219;28;20030;-75
2021/06/08 04:49:42;;;;;;;13.18;11.73;;;15.90;99.90;;;;;;5027479;28;20029;-75
2021/06/08 04:52:09;;;;;;;12.15;10.95;;;16.10;99.90;;;;;;5028496;28;20022;-75
2021/06/08 04:54:35;;;;;;;15.98;13.27;;;16.20;99.90;;;;;;5028621;28;20030;-75
2021/06/08 04:57:03;;;;;;;14.63;12.45;;;16.30;99.90;;;;;;5032241;28;20540;-74
2021/06/08 04:59:47;;;;;;;14.85;13.35;;;16.50;99.90;;;;;;5032174;28;20075;-75
2021/06/08 05:02:17;;;;;;;14.98;13.18;;;16.60;99.90;;;;;;5031928;28;20037;-74
2021/06/08 05:04:44;;;;;;;13.77;12.38;;;16.50;99.90;;;;;;5031965;28;20463;-74
2021/06/08 05:07:12;;;;;;;16.35;13.57;;;16.50;99.90;;;;;;5030723;28;20037;-74
2021/06/08 05:09:44;;;;;;;17.25;13.35;;;16.50;99.90;;;;;;5031978;28;20043;-74
2021/06/08 05:12:12;;;;;;;13.40;12.03;;;16.50;99.90;;;;;;5031928;28;20021;-74
2021/06/08 05:14:44;;;;;;;16.35;13.00;;;16.50;99.90;;;;;;5031957;28;20025;-74
2021/06/08 05:17:11;;;;;;;15.47;13.60;;;16.60;99.90;;;;;;5031891;28;20049;-74
2021/06/08 05:19:37;;;;;;;14.55;12.93;;;16.70;99.90;;;;;;5031994;28;20030;-74
2021/06/08 05:22:04;;;;;;;12.25;11.10;;;16.90;99.90;;;;;;5030296;28;20489;-74
2021/06/08 05:24:29;;;;;;;14.43;12.15;;;17.00;99.90;;;;;;5030297;28;20061;-75
2021/06/08 05:26:55;;;;;;;16.38;14.68;;;17.10;99.90;;;;;;5031579;28;20432;-74
2021/06/08 05:29:23;;;;;;;14.57;13.10;;;17.20;99.90;;;;;;5030182;28;20112;-75
2021/06/08 05:31:50;;;;;;;13.93;12.50;;;17.20;99.90;;;;;;5031551;28;20032;-74
2021/06/08 05:34:19;;;;;;;12.00;10.82;;;17.30;99.90;;;;;;5031371;28;20021;-75
2021/06/08 05:36:45;;;;;;;16.13;12.77;;;17.30;99.90;;;;;;5031412;28;20020;-75
2021/06/08 05:39:10;;;;;;;14.55;12.80;;;17.40;99.90;;;;;;5031435;28;20398;-75
2021/06/08 05:41:37;;;;;;;15.52;13.93;;;17.40;99.90;;;;;;5039133;22;20484;-72
2021/06/08 05:44:04;;;;;;;16.85;14.15;;;17.50;99.90;;;;;;5011801;28;20060;-72
2021/06/08 05:46:35;;;;;;;17.38;13.82;;;17.40;99.90;;;;;;5010814;28;20022;-75
2021/06/08 05:49:02;;;;;;;16.65;14.90;;;17.40;99.90;;;;;;5011796;28;20029;-72
2021/06/08 05:51:33;;;;;;;13.15;11.95;;;17.40;99.90;;;;;;5010328;28;20022;-74
2021/06/08 05:54:00;;;;;;;19.67;14.18;;;17.60;99.90;;;;;;5010365;28;20088;-74
2021/06/08 05:56:30;;;;;;;16.92;14.98;;;17.70;99.90;;;;;;5010427;28;20391;-73
2021/06/08 05:58:56;;;;;;;17.27;13.93;;;17.80;99.90;;;;;;5011445;28;20029;-72
2021/06/08 06:01:22;;;;;;;15.48;13.88;;;17.80;99.90;;;;;;5010124;28;20031;-73
2021/06/08 06:03:50;;;;;;;16.55;14.55;;;17.90;99.90;;;;;;5011340;28;20029;-74
2021/06/08 06:06:17;;;;;;;14.75;13.13;;;18.00;99.90;;;;;;5010766;28;20109;-73
2021/06/08 06:08:42;;;;;;;17.20;13.80;;;18.20;99.90;;;;;;5009867;28;20026;-75
2021/06/08 06:11:09;;;;;;;14.20;12.80;;;18.40;99.90;;;;;;5011062;28;20091;-75
2021/06/08 06:13:47;;;;;;;19.35;13.23;;;18.60;99.90;;;;;;5009869;28;20029;-75
2021/06/08 06:16:16;;;;;;;14.30;12.57;;;18.70;99.90;;;;;;5010714;28;20029;-75
2021/06/08 06:18:42;;;;;;;11.70;10.50;;;18.80;99.90;;;;;;5009767;28;20122;-75
2021/06/08 06:21:08;;;;;;;14.52;12.00;;;18.90;99.90;;;;;;5009620;28;20052;-75
2021/06/08 06:23:34;;;;;;;14.13;12.65;;;19.00;99.90;;;;;;5012021;28;20026;-74
2021/06/08 06:26:00;;;;;;;13.65;11.85;;;19.00;99.90;;;;;;5015531;28;20033;-74
2021/06/08 06:28:26;;;;;;;14.13;12.15;;;19.10;99.90;;;;;;5011132;28;20429;-74
2021/06/08 06:30:53;;;;;;;13.50;11.73;;;19.20;99.90;;;;;;5010805;28;20109;-74
2021/06/08 06:33:21;;;;;;;14.98;13.05;;;19.30;99.90;;;;;;5010822;28;20026;-74
2021/06/08 06:35:47;;;;;;;14.60;13.10;;;19.40;99.90;;;;;;5010680;28;20026;-74
2021/06/08 06:38:14;;;;;;;13.15;11.70;;;19.40;99.90;;;;;;5010525;28;20499;-74
2021/06/08 06:40:41;;;;;;;15.13;11.98;;;19.40;99.90;;;;;;5011020;28;20030;-75
2021/06/08 06:43:14;;;;;;;13.18;11.88;;;19.60;99.90;;;;;;5010611;28;20041;-74
2021/06/08 06:45:40;;;;;;;15.48;13.75;;;19.60;99.90;;;;;;5010471;28;20029;-74
2021/06/08 06:48:12;;;;;;;13.65;12.25;;;19.60;99.90;;;;;;5009235;28;20033;-73
2021/06/08 06:50:39;;;;;;;14.53;13.07;;;19.80;99.90;;;;;;5009106;28;20018;-74
2021/06/08 06:53:06;;;;;;;16.10;14.30;;;19.90;99.90;;;;;;5010385;28;20424;-74
2021/06/08 06:55:33;;;;;;;15.60;13.60;;;20.00;99.90;;;;;;5009291;28;20411;-74
2021/06/08 06:57:59;;;;;;;15.10;13.45;;;20.10;99.90;;;;;;5010354;28;20484;-74
2021/06/08 07:00:29;;;;;;;16.55;14.80;;;20.30;99.90;;;;;;5010298;28;20025;-74
2021/06/08 07:02:57;;;;;;;16.98;15.32;;;20.30;99.90;;;;;;5008940;28;20018;-74
2021/06/08 07:05:26;;;;;;;16.25;14.38;;;20.30;99.90;;;;;;5008951;28;20063;-73
2021/06/08 07:07:53;;;;;;;17.02;15.25;;;20.40;99.90;;;;;;5008882;28;20046;-74
2021/06/08 07:10:22;;;;;;;17.17;15.43;;;20.50;99.90;;;;;;5010458;28;20096;-73
2021/06/08 07:12:48;;;;;;;17.42;14.27;;;20.60;99.90;;;;;;5008644;28;20395;-73
2021/06/08 07:15:15;;;;;;;14.50;13.10;;;20.80;99.90;;;;;;5010024;28;20029;-74
2021/06/08 07:17:41;;;;;;;14.20;12.65;;;21.00;99.90;;;;;;5009224;28;20026;-73
2021/06/08 07:20:09;;;;;;;14.95;13.43;;;21.30;99.90;;;;;;5008519;28;20037;-73
2021/06/08 07:22:38;;;;;;;13.95;12.55;;;21.40;99.90;;;;;;5009926;28;20022;-73
2021/06/08 07:25:06;;;;;;;15.25;13.27;;;21.60;99.90;;;;;;5009820;28;20037;-73
2021/06/08 07:27:31;;;;;;;15.20;13.30;;;21.70;99.90;;;;;;5008473;28;20030;-74
2021/06/08 07:29:57;;;;;;;12.85;11.30;;;21.90;99.90;;;;;;5009793;28;20017;-74
2021/06/08 07:32:40;;;;;;;12.63;11.13;;;22.10;99.90;;;;;;5009961;28;20035;-73
2021/06/08 07:35:32;;;;;;;13.13;10.93;;;22.30;99.90;;;;;;5008570;28;20113;-73
2021/06/08 07:38:07;;;;;;;11.77;10.57;;;22.50;99.90;;;;;;5008446;28;20033;-74
2021/06/08 07:40:40;;;;;;;13.27;11.98;;;22.70;99.90;;;;;;5008474;28;20029;-75
2021/06/08 07:43:09;;;;;;;14.57;12.95;;;22.90;99.90;;;;;;5008313;28;20037;-74
2021/06/08 07:45:44;;;;;;;13.80;12.02;;;22.90;99.90;;;;;;5008414;28;20116;-72
2021/06/08 07:48:14;;;;;;;15.80;14.30;;;22.70;99.90;;;;;;5008283;28;20479;-74
2021/06/08 07:50:43;;;;;;;15.23;13.30;;;22.70;99.90;;;;;;5009804;28;20049;-73
2021/06/08 07:53:09;;;;;;;17.08;13.23;;;22.90;99.90;;;;;;5008318;28;20022;-73
2021/06/08 07:55:35;;;;;;;16.27;14.27;;;23.00;99.90;;;;;;5008227;28;20019;-73
2021/06/08 07:58:02;;;;;;;18.17;15.25;;;22.90;99.90;;;;;;5009350;28;20022;-74
2021/06/08 08:00:28;;;;;;;16.45;14.82;;;22.80;99.90;;;;;;5009416;28;20030;-74
2021/06/08 08:02:55;;;;;;;15.32;13.40;;;23.00;99.90;;;;;;5009316;28;20097;-74
2021/06/08 08:05:22;;;;;;;16.88;14.50;;;23.30;99.90;;;;;;5008140;28;20022;-74
2021/06/08 08:07:49;;;;;;;14.38;11.35;;;23.60;99.90;;;;;;5008759;28;20388;-74
2021/06/08 08:10:15;;;;;;;15.07;13.57;;;24.10;99.90;;;;;;5008079;28;20021;-74
2021/06/08 08:12:42;;;;;;;15.07;13.57;;;24.50;99.90;;;;;;5008142;28;20529;-74
2021/06/08 08:15:09;;;;;;;16.08;13.85;;;24.90;99.90;;;;;;5009146;28;20026;-74
2021/06/08 08:17:37;;;;;;;14.65;13.25;;;25.10;99.90;;;;;;5009316;28;20494;-74
2021/06/08 08:20:06;;;;;;;12.88;11.68;;;25.20;99.90;;;;;;5009409;28;20026;-74
2021/06/08 08:22:33;;;;;;;13.70;12.40;;;25.30;99.90;;;;;;5008031;28;20057;-74
2021/06/08 08:24:58;;;;;;;14.90;11.65;;;25.40;99.90;;;;;;5008078;28;20029;-74
2021/06/08 08:27:25;;;;;;;13.50;12.05;;;25.60;99.90;;;;;;5007946;28;20030;-74
2021/06/08 08:29:51;;;;;;;13.35;12.05;;;25.90;99.10;;;;;;5010184;28;20050;-74
2021/06/08 08:32:18;;;;;;;13.85;12.55;;;26.10;97.10;;;;;;5012916;28;20482;-74
2021/06/08 08:34:44;;;;;;;13.10;11.75;;;26.60;95.50;;;;;;5011641;28;20488;-74
2021/06/08 08:37:10;;;;;;;13.65;12.25;;;26.80;92.70;;;;;;5012928;28;20104;-74
2021/06/08 08:39:36;;;;;;;13.30;11.93;;;27.00;91.20;;;;;;5012824;28;20439;-74
2021/06/08 08:42:02;;;;;;;13.10;11.90;;;27.20;90.90;;;;;;5012618;28;20048;-74
2021/06/08 08:44:27;;;;;;;10.35;9.35;;;27.10;90.60;;;;;;5011321;28;20489;-74
2021/06/08 08:46:53;;;;;;;9.20;8.27;;;27.50;89.70;;;;;;5011302;28;20045;-74
2021/06/08 08:49:19;;;;;;;12.77;11.07;;;28.00;86.40;;;;;;5012661;28;20026;-74
2021/06/08 08:51:47;;;;;;;11.77;10.57;;;28.10;77.90;;;;;;5012511;28;20022;-74
2021/06/08 08:54:13;;;;;;;9.25;8.20;;;28.60;74.80;;;;;;5011113;28;20030;-74
2021/06/08 08:56:40;;;;;;;7.68;6.85;;;29.00;73.20;;;;;;5011234;28;20022;-74
2021/06/08 08:59:09;;;;;;;7.13;6.43;;;29.30;71.40;;;;;;5011267;28;20022;-74
2021/06/08 09:01:36;;;;;;;8.45;7.63;;;29.50;69.80;;;;;;5012404;28;20096;-75
2021/06/08 09:04:04;;;;;;;8.75;7.90;;;29.70;65.40;;;;;;5011112;28;20025;-74
2021/06/08 09:06:30;;;;;;;8.30;7.22;;;30.20;61.60;;;;;;5012378;28;20018;-74
2021/06/08 09:08:56;;;;;;;8.63;7.32;;;30.60;61.00;;;;;;5010918;28;20088;-75
2021/06/08 09:11:22;;;;;;;7.28;6.60;;;30.70;60.20;;;;;;5012279;28;20398;-74
2021/06/08 09:13:47;;;;;;;8.48;7.78;;;30.70;58.90;;;;;;5010857;28;20017;-74
2021/06/08 09:16:16;;;;;;;7.80;6.82;;;30.80;57.50;;;;;;5012381;28;20029;-74
2021/06/08 09:18:43;;;;;;;9.60;7.70;;;31.00;58.10;;;;;;5012035;28;20030;-74
2021/06/08 09:21:15;;;;;;;8.27;7.47;;;31.40;56.00;;;;;;5011904;28;20435;-74
2021/06/08 09:23:40;;;;;;;8.43;7.67;;;31.60;54.80;;;;;;5012347;28;20026;-74
2021/06/08 09:26:06;;;;;;;8.75;7.95;;;31.70;54.60;;;;;;5012165;28;20269;-74
2021/06/08 09:28:34;;;;;;;7.00;6.30;;;31.40;54.40;;;;;;5011832;28;20109;-74
2021/06/08 09:31:04;;;;;;;8.57;7.78;;;31.50;54.50;;;;;;5010498;28;20026;-74
2021/06/08 09:33:45;;;;;;;6.43;5.85;;;31.90;54.00;;;;;;5012124;28;20488;-74
2021/06/08 09:36:13;;;;;;;16.55;6.07;;;32.50;54.10;;;;;;5011785;28;20526;-75
2021/06/08 09:38:44;;;;;;;7.43;5.60;;;32.70;53.20;;;;;;5010425;28;20026;-75
2021/06/08 09:41:11;;;;;;;6.65;5.22;;;33.30;51.20;;;;;;5009399;28;20030;-76
2021/06/08 09:43:58;;;;;;;7.57;6.05;;;34.00;49.90;;;;;;5011917;28;20129;-73
2021/06/08 09:46:53;;;;;;;7.80;6.55;;;34.30;46.80;;;;;;5010325;28;20030;-75
2021/06/08 09:49:30;;;;;;;6.75;4.65;;;34.80;45.90;;;;;;5003385;28;20041;-74
2021/06/08 09:51:59;;;;;;;5.22;4.72;;;36.50;44.10;;;;;;5010049;28;20130;-75
2021/06/08 09:54:35;;;;;;;6.75;6.15;;;37.70;40.40;;;;;;5011372;28;20480;-75
2021/06/08 09:57:17;;;;;;;6.82;6.22;;;38.00;38.50;;;;;;5011576;28;20057;-74
2021/06/08 09:59:49;;;;;;;6.07;5.13;;;39.40;36.50;;;;;;5011209;28;20030;-75
2021/06/08 10:02:38;;;;;;;6.88;5.25;;;40.30;35.40;;;;;;5009881;28;20073;-75
2021/06/08 10:05:23;;;;;;;6.15;5.43;;;39.90;34.80;;;;;;5011674;28;20468;-74
2021/06/08 10:08:13;;;;;;;6.18;5.57;;;39.60;36.30;;;;;;5009899;28;20042;-74
2021/06/08 10:10:39;;;;;;;5.95;5.35;;;39.10;35.80;;;;;;5010861;28;20044;-74
2021/06/08 10:13:12;;;;;;;6.05;5.45;;;38.30;36.80;;;;;;5011005;28;20026;-74
2021/06/08 10:15:51;;;;;;;6.65;5.82;;;37.40;36.90;;;;;;5010965;28;20076;-74
2021/06/08 10:18:17;;;;;;;5.47;4.97;;;36.50;38.80;;;;;;5009660;28;20033;-74
2021/06/08 10:20:52;;;;;;;9.18;5.55;;;36.00;40.40;;;;;;5010838;28;20022;-75
2021/06/08 10:23:26;;;;;;;5.68;4.97;;;35.00;39.60;;;;;;5010813;28;20030;-74
2021/06/08 10:25:54;;;;;;;5.28;4.78;;;35.20;40.80;;;;;;5009480;28;20100;-74
2021/06/08 10:28:20;;;;;;;5.57;5.03;;;34.90;39.40;;;;;;5010767;28;20058;-74
2021/06/08 10:30:47;;;;;;;6.80;5.88;;;35.30;40.20;;;;;;5009359;28;20121;-74
2021/06/08 10:33:13;;;;;;;5.15;4.53;;;35.40;40.10;;;;;;5009379;28;20080;-75
2021/06/08 10:35:39;;;;;;;6.60;5.90;;;35.30;40.10;;;;;;5010370;28;20025;-76
2021/06/08 10:38:07;;;;;;;7.57;4.95;;;34.60;40.50;;;;;;5009801;28;20106;-74
2021/06/08 10:40:35;;;;;;;7.57;5.85;;;34.30;41.10;;;;;;5010471;28;20054;-75
2021/06/08 10:43:02;;;;;;;5.72;5.20;;;35.00;40.50;;;;;;5009363;28;20502;-74
2021/06/08 10:45:36;;;;;;;6.03;5.43;;;34.80;40.20;;;;;;5011007;28;20084;-72
2021/06/08 10:48:08;;;;;;;6.28;5.72;;;35.70;39.60;;;;;;5009197;28;20026;-75
2021/06/08 10:50:36;;;;;;;7.45;5.60;;;36.80;37.10;;;;;;5009018;28;20036;-75
2021/06/08 10:53:02;;;;;;;6.20;5.60;;;38.00;36.20;;;;;;5010342;28;20025;-75
2021/06/08 10:55:39;;;;;;;5.65;5.00;;;38.50;34.60;;;;;;5010280;28;20398;-75
2021/06/08 10:58:06;;;;;;;6.47;5.65;;;38.70;35.20;;;;;;5008966;28;20084;-75
2021/06/08 11:00:32;;;;;;;6.03;5.35;;;38.00;35.50;;;;;;5010230;28;20049;-75
2021/06/08 11:03:01;;;;;;;5.90;5.30;;;37.90;37.50;;;;;;5010217;28;20026;-75
2021/06/08 11:05:47;;;;;;;4.75;4.35;;;37.40;36.80;;;;;;5008870;28;20041;-75
2021/06/08 11:08:13;;;;;;;6.18;5.30;;;37.40;36.20;;;;;;5010123;28;20029;-75
2021/06/08 11:10:43;;;;;;;5.03;4.00;;;36.50;37.80;;;;;;5010271;28;20033;-73
2021/06/08 11:13:09;;;;;;;5.47;4.22;;;35.90;34.50;;;;;;5010297;28;20026;-75
2021/06/08 11:15:58;;;;;;;5.30;4.38;;;35.80;36.00;;;;;;5010228;28;20034;-75
2021/06/08 11:18:36;;;;;;;4.20;3.78;;;36.20;35.60;;;;;;5006180;28;20495;-75
2021/06/08 11:21:04;;;;;;;5.28;4.50;;;36.70;35.70;;;;;;5008575;28;20555;-75
2021/06/08 11:23:35;;;;;;;5.88;3.97;;;37.70;32.50;;;;;;5008612;28;20545;-75
2021/06/08 11:26:01;;;;;;;4.68;4.18;;;38.50;34.60;;;;;;5010252;28;20049;-76
2021/06/08 11:28:42;;;;;;;4.50;4.10;;;38.90;31.00;;;;;;5009944;28;20026;-75
2021/06/08 11:31:09;;;;;;;8.63;4.55;;;39.00;30.80;;;;;;5009649;28;20030;-75
2021/06/08 11:33:39;;;;;;;4.82;4.22;;;39.00;30.90;;;;;;5009382;28;20034;-75
2021/06/08 11:36:21;;;;;;;5.05;4.15;;;39.10;32.40;;;;;;5008774;28;20037;-75
2021/06/08 11:38:48;;;;;;;;;;;39.90;30.20;;;;;;5010157;28;20029;-76
2021/06/08 11:41:14;;;;;;;5.18;4.25;;;39.60;30.70;;;;;;5036791;22;20057;-71
2021/06/08 11:43:55;;;;;;;3.97;3.58;;;40.10;30.40;;;;;;5029940;28;20147;-71
2021/06/08 11:46:28;;;;;;;5.00;4.30;;;40.30;30.50;;;;;;5029574;28;20022;-70
2021/06/08 11:49:07;;;;;;;4.30;3.92;;;39.60;29.40;;;;;;5029708;28;20021;-72
2021/06/08 11:51:42;;;;;;;4.57;3.83;;;37.50;29.70;;;;;;5029833;28;20486;-73
2021/06/08 11:54:10;;;;;;;4.40;3.60;;;37.30;30.70;;;;;;5029708;28;20091;-72
2021/06/08 11:56:55;;;;;;;4.80;4.22;;;37.30;30.80;;;;;;5029597;28;20060;-72
2021/06/08 11:59:26;;;;;;;4.65;3.88;;;36.70;31.00;;;;;;5028646;28;20029;-72
2021/06/08 12:02:05;;;;;;;3.92;3.53;;;36.20;32.50;;;;;;5029967;28;20029;-71
2021/06/08 12:04:51;;;;;;;4.35;3.47;;;36.80;32.60;;;;;;5031470;28;20386;-72
2021/06/08 12:07:17;;;;;;;4.97;4.10;;;37.40;32.20;;;;;;5033419;28;20466;-72
2021/06/08 12:09:47;;;;;;;4.25;3.85;;;37.80;31.10;;;;;;5031940;28;20041;-73
2021/06/08 12:12:16;;;;;;;4.82;3.92;;;38.20;31.30;;;;;;5033024;28;20033;-72
2021/06/08 12:14:57;;;;;;;4.68;3.65;;;38.30;30.70;;;;;;5031821;28;20033;-72
2021/06/08 12:17:23;;;;;;;4.82;3.97;;;39.30;30.10;;;;;;5033106;28;20100;-75
2021/06/08 12:19:49;;;;;;;4.13;3.72;;;39.90;30.60;;;;;;5031678;28;20509;-73
2021/06/08 12:22:26;;;;;;;3.72;3.42;;;40.40;29.30;;;;;;5031572;28;20032;-73
2021/06/08 12:25:04;;;;;;;4.13;3.72;;;41.40;28.30;;;;;;5032889;28;20023;-71
2021/06/08 12:27:37;;;;;;;3.90;3.33;;;41.50;29.00;;;;;;5032300;28;20033;-74
2021/06/08 12:30:09;;;;;;;4.13;3.80;;;42.30;28.00;;;;;;5031788;28;20496;-73
2021/06/08 12:32:35;;;;;;;3.70;3.33;;;41.80;27.90;;;;;;5033224;28;20021;-73
2021/06/08 12:35:01;;;;;;;4.00;3.50;;;40.40;28.10;;;;;;5032990;28;20077;-73
2021/06/08 12:37:27;;;;;;;3.95;3.65;;;40.50;29.60;;;;;;5032804;28;20411;-71
2021/06/08 12:39:55;;;;;;;4.13;3.72;;;39.70;30.40;;;;;;5031214;28;20099;-71
2021/06/08 12:42:22;;;;;;;4.95;4.55;;;39.20;30.60;;;;;;5032252;28;20029;-71